Chocowinity, North Carolina
Current Conditions -  °F | °C
As of 2:15 AM on Saturday 25 Oct 2014 (Local Time) from KOCW Reporting Station
Overcast Overcast  
Wind Chill: 46°   Ceiling: 500
Heat Index: 46°   Visibility: 0.5mi
Dew Point: 45°   Wind: 0mph
Humidity: 97%   Direction: NA
Pressure: 29.98"   Gusts: NA
Location:  35.51°N, 77.1°W
Report Text: KOCW 250615Z AUTO 00000KT 1/2SM VV005 08/07 A2998 RMK AO2 T00760072
Loading
Personal Weather Stations






























Interactive Weather Map New forecast layout! Learn more

10-Day Weather Forecast

Advertisements
Track Severe Weather on mobile